createdAt,value
2023-02-07T00:01:15.106Z,73.17
2023-02-07T00:03:42.244Z,73.29
2023-02-07T00:06:11.368Z,73.11
2023-02-07T00:08:40.496Z,72.99
2023-02-07T00:11:09.429Z,73.18
2023-02-07T00:13:36.817Z,72.55
2023-02-07T00:16:05.621Z,72.78
2023-02-07T00:18:33.327Z,72.74
2023-02-07T00:21:00.905Z,72.96
2023-02-07T00:23:27.774Z,72.91
2023-02-07T00:25:58.338Z,72.59
2023-02-07T00:28:25.138Z,72.91
2023-02-07T00:31:01.890Z,72.62
2023-02-07T00:33:28.457Z,72.39
2023-02-07T00:35:57.795Z,72.31
2023-02-07T00:38:24.825Z,72.10
2023-02-07T00:40:51.338Z,71.99
2023-02-07T00:43:29.426Z,71.80
2023-02-07T00:45:56.949Z,71.91
2023-02-07T00:48:23.641Z,71.94
2023-02-07T00:50:50.311Z,71.89
2023-02-07T00:53:16.791Z,71.72
2023-02-07T00:55:43.415Z,71.13
2023-02-07T00:58:09.942Z,71.59
2023-02-07T01:00:38.373Z,71.31
2023-02-07T01:03:05.096Z,71.69
2023-02-07T01:05:32.129Z,71.20
2023-02-07T01:07:58.678Z,70.46
2023-02-07T01:10:25.230Z,70.78
2023-02-07T01:12:52.222Z,70.79
2023-02-07T01:15:19.183Z,70.71
2023-02-07T01:17:47.036Z,69.96
2023-02-07T01:20:15.244Z,69.81
2023-02-07T01:22:41.790Z,69.36
2023-02-07T01:25:09.572Z,69.06
2023-02-07T01:27:36.553Z,68.70
2023-02-07T01:30:05.334Z,68.54
2023-02-07T01:32:32.771Z,68.50
2023-02-07T01:35:00.695Z,68.17
2023-02-07T01:37:27.763Z,67.90
2023-02-07T01:39:54.446Z,68.28
2023-02-07T01:42:24.535Z,67.61
2023-02-07T01:45:05.373Z,67.94
2023-02-07T01:47:33.774Z,67.70
2023-02-07T01:50:02.759Z,67.58
2023-02-07T01:52:33.548Z,67.48
2023-02-07T01:55:02.738Z,67.64
2023-02-07T01:57:30.436Z,67.27
2023-02-07T01:59:58.485Z,67.43
2023-02-07T02:02:28.690Z,67.59
2023-02-07T02:04:57.558Z,67.49
2023-02-07T02:07:26.934Z,67.58
2023-02-07T02:09:53.647Z,67.87
2023-02-07T02:12:34.401Z,67.46
2023-02-07T02:15:14.717Z,66.85
2023-02-07T02:17:55.084Z,66.90
2023-02-07T02:20:59.178Z,66.97
2023-02-07T02:23:41.393Z,66.76
2023-02-07T02:26:56.103Z,66.87
2023-02-07T02:29:45.546Z,66.86
2023-02-07T02:32:48.763Z,66.69
2023-02-07T02:35:21.966Z,67.10
2023-02-07T02:37:55.175Z,67.21
2023-02-07T02:40:29.503Z,67.03
2023-02-07T02:43:00.717Z,67.04
2023-02-07T02:45:30.344Z,67.80
2023-02-07T02:47:58.937Z,67.17
2023-02-07T02:50:27.857Z,66.96
2023-02-07T02:52:54.610Z,66.87
2023-02-07T02:55:36.379Z,66.58
2023-02-07T02:58:11.234Z,67.05
2023-02-07T03:00:47.278Z,66.83
2023-02-07T03:03:35.187Z,66.82
2023-02-07T03:06:12.284Z,66.81
2023-02-07T03:08:45.776Z,66.11
2023-02-07T03:11:15.793Z,65.92
2023-02-07T03:13:58.906Z,66.23
2023-02-07T03:16:31.120Z,66.24
2023-02-07T03:19:06.696Z,66.17
2023-02-07T03:21:37.566Z,66.28
2023-02-07T03:24:08.376Z,66.24
2023-02-07T03:26:36.035Z,66.31
2023-02-07T03:29:04.933Z,66.27
2023-02-07T03:31:33.730Z,66.82
2023-02-07T03:34:08.750Z,66.40
2023-02-07T03:36:41.688Z,66.22
2023-02-07T03:39:08.263Z,66.11
2023-02-07T03:41:41.889Z,66.07
2023-02-07T03:44:10.839Z,66.45
2023-02-07T03:46:40.320Z,65.64
2023-02-07T03:49:08.440Z,65.99
2023-02-07T03:51:35.548Z,65.60
2023-02-07T03:54:02.051Z,66.03
2023-02-07T03:56:28.501Z,66.28
2023-02-07T03:58:55.146Z,66.51
2023-02-07T04:01:22.125Z,66.14
2023-02-07T04:03:48.618Z,65.92
2023-02-07T04:06:17.107Z,65.76
2023-02-07T04:08:43.677Z,65.58
2023-02-07T04:11:10.272Z,65.31
2023-02-07T04:13:37.077Z,65.30
2023-02-07T04:16:05.065Z,65.47
2023-02-07T04:18:31.626Z,64.96
2023-02-07T04:21:02.248Z,65.20
2023-02-07T04:23:30.462Z,65.06
2023-02-07T04:25:57.224Z,65.13
2023-02-07T04:28:23.859Z,65.42
2023-02-07T04:30:50.395Z,65.74
2023-02-07T04:33:16.979Z,65.62
2023-02-07T04:35:43.577Z,65.68
2023-02-07T04:38:10.209Z,65.80
2023-02-07T04:40:38.902Z,65.81
2023-02-07T04:43:06.313Z,65.98
2023-02-07T04:45:32.763Z,65.76
2023-02-07T04:47:59.638Z,65.99
2023-02-07T04:50:26.124Z,65.67
2023-02-07T04:52:52.717Z,65.98
2023-02-07T04:55:19.324Z,66.30
2023-02-07T04:57:47.160Z,66.15
2023-02-07T05:00:14.351Z,65.75
2023-02-07T05:02:40.910Z,66.16
2023-02-07T05:05:08.091Z,65.83
2023-02-07T05:07:34.703Z,65.75
2023-02-07T05:10:01.184Z,65.68
2023-02-07T05:12:27.649Z,66.12
2023-02-07T05:14:55.750Z,65.86
2023-02-07T05:17:22.833Z,66.18
2023-02-07T05:19:49.267Z,66.32
2023-02-07T05:22:15.876Z,66.27
2023-02-07T05:24:42.450Z,66.24
2023-02-07T05:27:08.889Z,66.41
2023-02-07T05:29:35.397Z,66.89
2023-02-07T05:32:04.721Z,66.85
2023-02-07T05:34:32.753Z,67.25
2023-02-07T05:36:59.432Z,67.71
2023-02-07T05:39:28.053Z,67.48
2023-02-07T05:41:54.590Z,67.69
2023-02-07T05:44:21.303Z,67.61
2023-02-07T05:46:47.778Z,67.65
2023-02-07T05:49:16.578Z,67.59
2023-02-07T05:51:43.165Z,67.74
2023-02-07T05:54:09.669Z,67.76
2023-02-07T05:56:36.091Z,67.66
2023-02-07T05:59:02.896Z,67.57
2023-02-07T06:01:29.520Z,67.82
2023-02-07T06:03:56.550Z,68.31
2023-02-07T06:06:24.536Z,68.08
2023-02-07T06:08:51.056Z,68.03
2023-02-07T06:11:17.548Z,68.85
2023-02-07T06:13:44.276Z,68.51
2023-02-07T06:16:10.989Z,68.34
2023-02-07T06:18:37.618Z,67.88
2023-02-07T06:21:04.984Z,68.45
2023-02-07T06:23:32.927Z,68.06
2023-02-07T06:25:59.835Z,68.45
2023-02-07T06:28:26.590Z,69.12
2023-02-07T06:30:53.592Z,68.47
2023-02-07T06:33:20.446Z,69.03
2023-02-07T06:35:47.361Z,69.36
2023-02-07T06:38:15.250Z,69.10
2023-02-07T06:40:50.042Z,68.56
2023-02-07T06:43:17.576Z,68.92
2023-02-07T06:45:44.824Z,68.85
2023-02-07T06:48:12.544Z,68.77
2023-02-07T06:50:42.227Z,69.34
2023-02-07T06:53:15.482Z,68.87
2023-02-07T06:59:54.696Z,67.82
2023-02-07T07:02:34.366Z,68.12
2023-02-07T07:05:10.943Z,67.76
2023-02-07T07:07:37.410Z,66.97
2023-02-07T07:10:05.015Z,66.86
2023-02-07T07:12:33.311Z,67.48
2023-02-07T07:14:59.809Z,66.43
2023-02-07T07:17:30.442Z,66.09
2023-02-07T07:19:57.131Z,65.88
2023-02-07T07:22:23.909Z,65.38
2023-02-07T07:24:52.155Z,65.65
2023-02-07T07:27:21.862Z,64.83
2023-02-07T07:29:50.775Z,64.91
2023-02-07T07:32:32.292Z,64.61
2023-02-07T07:35:00.099Z,63.80
2023-02-07T07:37:28.415Z,63.34
2023-02-07T07:43:28.316Z,62.35
2023-02-07T07:45:59.877Z,61.60
2023-02-07T07:48:27.301Z,61.04
2023-02-07T07:51:43.625Z,59.59
2023-02-07T07:54:18.326Z,58.88
2023-02-07T07:56:45.613Z,58.28
2023-02-07T07:59:23.643Z,58.27
2023-02-07T08:01:58.023Z,57.51
2023-02-07T08:04:46.643Z,57.58
2023-02-07T08:07:21.169Z,57.28
2023-02-07T08:09:49.563Z,56.60
2023-02-07T08:15:19.686Z,55.19
2023-02-07T08:21:21.947Z,55.06
2023-02-07T08:23:50.624Z,54.68
2023-02-07T08:26:17.730Z,54.82
2023-02-07T08:28:49.710Z,54.83
2023-02-07T08:31:18.942Z,54.58
2023-02-07T08:33:48.072Z,54.08
2023-02-07T08:36:16.258Z,54.24
2023-02-07T08:38:42.981Z,54.13
2023-02-07T08:41:09.502Z,54.19
2023-02-07T08:43:36.068Z,53.58
2023-02-07T08:46:03.574Z,53.83
2023-02-07T08:48:30.241Z,54.52
2023-02-07T08:51:03.655Z,53.98
2023-02-07T08:53:32.328Z,53.12
2023-02-07T08:55:59.150Z,53.03
2023-02-07T08:58:26.131Z,53.16
2023-02-07T09:00:55.218Z,52.42
2023-02-07T09:03:23.879Z,51.90
2023-02-07T09:05:51.044Z,51.94
2023-02-07T09:08:18.388Z,51.20
2023-02-07T09:10:50.980Z,51.13
2023-02-07T09:13:18.722Z,50.66
2023-02-07T09:15:46.512Z,49.60
2023-02-07T09:18:13.349Z,49.78
2023-02-07T09:20:40.351Z,49.67
2023-02-07T09:23:09.937Z,49.42
2023-02-07T09:25:38.948Z,49.71
2023-02-07T09:28:07.802Z,49.16
2023-02-07T09:30:35.783Z,48.95
2023-02-07T09:33:03.705Z,49.42
2023-02-07T09:35:31.375Z,48.89
2023-02-07T09:38:01.192Z,49.20
2023-02-07T09:40:31.902Z,49.56
2023-02-07T09:43:38.363Z,49.27
2023-02-07T09:46:13.945Z,49.42
2023-02-07T09:48:48.329Z,49.07
2023-02-07T09:51:19.333Z,49.44
2023-02-07T09:53:51.095Z,48.89
2023-02-07T09:56:21.896Z,48.17
2023-02-07T09:58:55.511Z,48.48
2023-02-07T10:04:38.910Z,47.83
2023-02-07T10:07:06.926Z,47.92
2023-02-07T10:09:39.906Z,47.45
2023-02-07T10:12:28.375Z,47.95
2023-02-07T10:15:30.937Z,47.93
2023-02-07T10:18:21.688Z,47.91
2023-02-07T10:20:54.698Z,46.93
2023-02-07T10:23:39.788Z,46.88
2023-02-07T10:26:16.644Z,46.00
2023-02-07T10:32:15.314Z,44.01
2023-02-07T10:35:02.731Z,44.72
2023-02-07T10:37:37.139Z,44.89
2023-02-07T10:40:08.030Z,45.72
2023-02-07T10:42:37.615Z,44.49
2023-02-07T10:45:08.575Z,43.77
2023-02-07T10:47:40.078Z,44.57
2023-02-07T10:50:29.382Z,44.28
2023-02-07T10:52:58.216Z,44.75
2023-02-07T10:55:49.326Z,44.06
2023-02-07T10:58:38.981Z,44.43
2023-02-07T11:01:22.861Z,42.61
2023-02-07T11:03:54.557Z,43.13
2023-02-07T11:06:27.423Z,42.71
2023-02-07T11:09:15.568Z,42.47
2023-02-07T11:11:56.135Z,41.97
2023-02-07T11:14:25.636Z,41.44
2023-02-07T11:16:53.536Z,42.09
2023-02-07T11:20:06.081Z,40.02
2023-02-07T11:26:48.465Z,41.12
2023-02-07T11:29:21.567Z,40.96
2023-02-07T11:35:33.642Z,39.48
2023-02-07T11:38:04.609Z,40.12
2023-02-07T11:40:37.856Z,39.10
2023-02-07T11:43:12.502Z,38.36
2023-02-07T11:45:44.674Z,39.19
2023-02-07T11:48:19.375Z,39.63
2023-02-07T11:50:52.264Z,39.74
2023-02-07T11:53:22.510Z,38.50
2023-02-07T11:55:49.434Z,38.45
2023-02-07T11:58:23.492Z,38.83
2023-02-07T12:00:54.416Z,37.60
2023-02-07T12:03:23.598Z,39.27
2023-02-07T12:05:53.739Z,39.85
2023-02-07T12:08:22.712Z,39.03
2023-02-07T12:11:38.705Z,38.68
2023-02-07T12:14:13.220Z,37.36
2023-02-07T12:16:47.858Z,37.20
2023-02-07T12:19:19.418Z,37.07
2023-02-07T12:21:54.789Z,37.48
2023-02-07T12:24:25.022Z,38.23
2023-02-07T12:26:58.049Z,38.01
2023-02-07T12:29:35.888Z,38.04
2023-02-07T12:32:10.868Z,37.22
2023-02-07T12:38:24.139Z,36.66
2023-02-07T12:55:19.101Z,36.79
2023-02-07T12:57:56.270Z,36.05
2023-02-07T13:00:31.495Z,35.82
2023-02-07T13:03:25.689Z,36.46
2023-02-07T13:06:09.834Z,36.35
2023-02-07T13:08:48.764Z,35.92
2023-02-07T13:11:27.569Z,36.25
2023-02-07T13:14:06.140Z,35.34
2023-02-07T13:17:12.752Z,36.74
2023-02-07T13:19:47.763Z,36.42
2023-02-07T13:22:29.449Z,35.78
2023-02-07T13:24:56.761Z,34.57
2023-02-07T13:27:26.829Z,34.21
2023-02-07T13:29:53.953Z,34.16
2023-02-07T13:32:23.082Z,34.06
2023-02-07T13:34:55.326Z,34.26
2023-02-07T13:37:27.800Z,34.09
2023-02-07T13:40:02.150Z,34.42
2023-02-07T13:42:37.793Z,34.78
2023-02-07T13:45:13.708Z,34.70
2023-02-07T13:47:48.895Z,34.58
2023-02-07T13:50:25.305Z,34.51
2023-02-07T13:52:57.647Z,34.63
2023-02-07T13:55:30.854Z,34.35
2023-02-07T13:57:58.863Z,34.63
2023-02-07T14:00:27.036Z,33.33
2023-02-07T14:02:58.736Z,33.83
2023-02-07T14:05:28.571Z,33.35
2023-02-07T14:07:58.165Z,33.27
2023-02-07T14:10:49.709Z,33.31
2023-02-07T14:13:31.846Z,33.87
2023-02-07T14:16:02.065Z,33.64
2023-02-07T14:18:51.362Z,33.53
2023-02-07T14:21:42.737Z,32.84
2023-02-07T14:24:32.111Z,32.86
2023-02-07T14:27:05.369Z,31.91
2023-02-07T14:30:20.488Z,32.18
2023-02-07T14:33:12.431Z,32.87
2023-02-07T14:36:02.312Z,32.59
2023-02-07T14:38:36.228Z,33.10
2023-02-07T14:41:10.518Z,32.45
2023-02-07T14:43:50.568Z,32.59
2023-02-07T14:46:28.649Z,31.54
2023-02-07T14:49:01.372Z,31.37
2023-02-07T14:51:40.277Z,30.66
2023-02-07T14:54:15.718Z,30.66
2023-02-07T14:56:51.829Z,30.32
2023-02-07T14:59:27.436Z,30.72
2023-02-07T15:01:56.527Z,31.53
2023-02-07T15:04:23.207Z,31.15
2023-02-07T15:06:51.230Z,31.33
2023-02-07T15:09:26.164Z,31.10
2023-02-07T15:12:04.857Z,31.09
2023-02-07T15:14:39.474Z,31.53
2023-02-07T15:17:07.836Z,31.41
2023-02-07T15:19:37.115Z,32.52
2023-02-07T15:22:14.224Z,31.92
2023-02-07T15:24:52.123Z,32.74
2023-02-07T15:27:22.826Z,32.74
2023-02-07T15:29:57.065Z,32.32
2023-02-07T15:32:46.368Z,32.75
2023-02-07T15:36:03.332Z,33.30
2023-02-07T15:38:30.531Z,33.66
2023-02-07T15:41:00.354Z,33.09
2023-02-07T15:43:30.564Z,33.18
2023-02-07T15:46:10.547Z,33.37
2023-02-07T15:48:50.298Z,33.24
2023-02-07T15:51:23.354Z,33.43
2023-02-07T15:53:52.271Z,33.55
2023-02-07T15:56:19.402Z,34.35
2023-02-07T15:58:57.232Z,33.45
2023-02-07T16:01:27.043Z,32.87
2023-02-07T16:03:58.682Z,33.05
2023-02-07T16:13:45.442Z,33.05
2023-02-07T16:16:35.947Z,34.08
2023-02-07T16:22:44.937Z,34.06
2023-02-07T16:25:48.468Z,34.83
2023-02-07T16:32:18.570Z,34.70
2023-02-07T16:35:17.752Z,35.02
2023-02-07T16:37:47.911Z,35.11
2023-02-07T16:40:30.983Z,35.82
2023-02-07T16:43:41.085Z,36.74
2023-02-07T16:46:28.097Z,37.46
2023-02-07T16:49:49.552Z,38.05
2023-02-07T17:05:52.725Z,49.00
2023-02-07T17:08:37.104Z,50.39
2023-02-07T17:11:14.468Z,50.26
2023-02-07T17:14:28.687Z,50.08
2023-02-07T17:17:04.168Z,50.42
2023-02-07T17:23:35.401Z,51.80
2023-02-07T17:26:02.321Z,52.10
2023-02-07T17:28:30.518Z,52.25
2023-02-07T17:31:22.089Z,51.74
2023-02-07T17:41:26.456Z,52.53
2023-02-07T17:44:03.006Z,52.48
2023-02-07T18:00:05.150Z,53.67
2023-02-07T18:02:47.642Z,53.46
2023-02-07T18:05:26.351Z,53.81
2023-02-07T18:07:58.517Z,53.62
2023-02-07T18:10:29.452Z,53.70
2023-02-07T18:13:11.561Z,54.43
2023-02-07T18:15:49.325Z,54.25
2023-02-07T18:18:19.543Z,54.26
2023-02-07T18:21:34.912Z,54.32
2023-02-07T18:24:04.676Z,54.43
2023-02-07T18:26:36.453Z,54.60
2023-02-07T18:29:07.331Z,54.50
2023-02-07T18:31:47.601Z,55.00
2023-02-07T18:34:25.386Z,55.09
2023-02-07T18:36:53.468Z,55.02
2023-02-07T18:42:50.297Z,55.45
2023-02-07T18:45:22.144Z,55.98
2023-02-07T18:48:16.528Z,55.87
2023-02-07T18:50:45.603Z,55.92
2023-02-07T18:53:21.288Z,56.15
2023-02-07T18:55:59.918Z,55.92
2023-02-07T18:59:00.352Z,56.27
2023-02-07T19:01:58.653Z,56.54
2023-02-07T19:08:48.100Z,56.65
2023-02-07T19:15:27.823Z,57.15
2023-02-07T19:17:54.578Z,57.25
2023-02-07T19:20:21.261Z,57.72
2023-02-07T19:22:52.366Z,57.83
2023-02-07T19:25:20.071Z,57.91
2023-02-07T19:27:47.368Z,57.92
2023-02-07T19:30:14.285Z,58.14
2023-02-07T19:32:42.056Z,58.09
2023-02-07T19:35:08.621Z,58.63
2023-02-07T19:37:37.350Z,58.80
2023-02-07T19:40:06.376Z,58.64
2023-02-07T19:42:32.948Z,59.26
2023-02-07T19:44:59.598Z,59.21
2023-02-07T19:47:26.213Z,59.08
2023-02-07T19:49:52.976Z,59.23
2023-02-07T19:52:56.265Z,59.45
2023-02-07T19:55:26.186Z,59.66
2023-02-07T19:57:53.376Z,59.86
2023-02-07T20:00:20.486Z,59.91
2023-02-07T20:02:47.047Z,59.90
2023-02-07T20:05:13.995Z,59.83
2023-02-07T20:07:40.647Z,59.93
2023-02-07T20:10:08.158Z,60.02
2023-02-07T20:12:36.402Z,59.99
2023-02-07T20:15:03.243Z,59.74
2023-02-07T20:17:29.912Z,59.40
2023-02-07T20:19:56.459Z,58.91
2023-02-07T20:22:23.423Z,58.90
2023-02-07T20:24:50.014Z,58.66
2023-02-07T20:27:16.576Z,58.41
2023-02-07T20:29:44.553Z,58.55
2023-02-07T20:32:11.188Z,57.85
2023-02-07T20:34:37.896Z,57.24
2023-02-07T20:37:04.524Z,56.90
2023-02-07T20:39:31.102Z,57.03
2023-02-07T20:41:57.677Z,57.00
2023-02-07T20:44:24.379Z,57.04
2023-02-07T20:46:53.111Z,57.01
2023-02-07T20:49:21.643Z,57.39
2023-02-07T20:51:49.872Z,56.19
2023-02-07T20:54:18.018Z,55.58
2023-02-07T20:57:01.926Z,54.97
2023-02-07T21:00:11.071Z,54.00
2023-02-07T21:03:27.863Z,53.29
2023-02-07T21:06:35.284Z,53.01
2023-02-07T21:09:56.608Z,52.99
2023-02-07T21:12:51.597Z,51.87
2023-02-07T21:16:03.029Z,50.65
2023-02-07T21:22:31.192Z,48.06
2023-02-07T21:24:57.804Z,47.85
2023-02-07T21:27:24.410Z,47.36
2023-02-07T21:29:50.933Z,47.67
2023-02-07T21:32:17.452Z,47.85
2023-02-07T21:34:45.487Z,47.52
2023-02-07T21:37:12.413Z,47.96
2023-02-07T21:39:39.175Z,48.43
2023-02-07T21:42:05.928Z,49.29
2023-02-07T21:44:55.510Z,49.46
2023-02-07T21:47:22.480Z,50.05
2023-02-07T21:53:14.308Z,51.42
2023-02-07T21:55:40.922Z,51.41
2023-02-07T21:58:10.032Z,51.59
2023-02-07T22:00:36.827Z,51.23
2023-02-07T22:03:04.167Z,51.50
2023-02-07T22:05:32.831Z,51.03
2023-02-07T22:08:03.405Z,51.00
2023-02-07T22:10:30.203Z,50.59
2023-02-07T22:12:57.006Z,50.18
2023-02-07T22:15:24.157Z,49.49
2023-02-07T22:17:54.230Z,48.80
2023-02-07T22:21:01.460Z,48.01
2023-02-07T22:23:28.774Z,47.50
2023-02-07T22:25:55.883Z,47.59
2023-02-07T22:28:24.251Z,47.44
2023-02-07T22:30:51.045Z,47.23
2023-02-07T22:33:24.607Z,47.51
2023-02-07T22:35:56.712Z,47.59
2023-02-07T22:38:25.714Z,47.51
2023-02-07T22:40:54.115Z,47.88
2023-02-07T22:43:21.035Z,47.84
2023-02-07T22:45:52.893Z,48.24
2023-02-07T22:48:19.644Z,48.31
2023-02-07T22:50:48.017Z,48.52
2023-02-07T22:53:17.701Z,48.61
2023-02-07T22:55:44.239Z,48.42
2023-02-07T22:58:14.631Z,48.52
2023-02-07T23:00:42.012Z,48.75
2023-02-07T23:03:08.745Z,48.36
2023-02-07T23:05:37.025Z,48.26
2023-02-07T23:08:07.060Z,48.25
2023-02-07T23:10:34.899Z,48.36
2023-02-07T23:13:01.794Z,47.96
2023-02-07T23:15:29.468Z,47.78
2023-02-07T23:17:56.709Z,47.62
2023-02-07T23:20:23.388Z,47.34
2023-02-07T23:22:49.966Z,47.29
2023-02-07T23:25:16.747Z,47.15
2023-02-07T23:27:45.057Z,47.24
2023-02-07T23:30:19.140Z,47.17
2023-02-07T23:32:45.820Z,47.45
2023-02-07T23:35:14.938Z,47.18
2023-02-07T23:38:00.821Z,47.53
2023-02-07T23:40:33.273Z,47.13
2023-02-07T23:43:21.381Z,46.76
2023-02-07T23:45:47.884Z,47.04
2023-02-07T23:48:57.017Z,47.32
2023-02-07T23:51:26.345Z,47.14
2023-02-07T23:53:54.888Z,46.99
2023-02-07T23:56:27.780Z,47.14
